createdAt,value
2018-05-16T00:01:31.654Z,21.63
2018-05-16T00:03:59.937Z,31.67
2018-05-16T00:06:28.323Z,22.53
2018-05-16T00:08:55.896Z,19.30
2018-05-16T00:11:23.433Z,22.87
2018-05-16T00:13:51.768Z,21.00
2018-05-16T00:16:19.341Z,19.00
2018-05-16T00:18:46.904Z,20.77
2018-05-16T00:21:14.440Z,18.70
2018-05-16T00:23:42.004Z,18.00
2018-05-16T00:26:09.562Z,20.80
2018-05-16T00:28:37.167Z,20.80
2018-05-16T00:31:04.705Z,19.70
2018-05-16T00:33:32.251Z,21.93
2018-05-16T00:35:59.835Z,20.27
2018-05-16T00:38:28.169Z,19.57
2018-05-16T00:40:55.703Z,16.67
2018-05-16T00:43:23.300Z,18.30
2018-05-16T00:45:50.855Z,20.63
2018-05-16T00:48:18.501Z,17.00
2018-05-16T00:50:58.243Z,22.20
2018-05-16T00:53:26.544Z,17.00
2018-05-16T00:55:54.103Z,19.60
2018-05-16T00:58:21.647Z,18.63
2018-05-16T01:00:49.320Z,21.37
2018-05-16T01:03:16.861Z,20.33
2018-05-16T01:05:44.407Z,26.70
2018-05-16T01:08:11.926Z,23.63
2018-05-16T01:10:40.276Z,21.50
2018-05-16T01:13:07.909Z,20.47
2018-05-16T01:15:35.438Z,19.40
2018-05-16T01:18:03.777Z,23.30
2018-05-16T01:20:32.827Z,21.50
2018-05-16T01:23:00.431Z,21.70
2018-05-16T01:25:27.983Z,23.87
2018-05-16T01:27:55.561Z,25.43
2018-05-16T01:30:24.629Z,21.00
2018-05-16T01:32:52.181Z,25.20
2018-05-16T01:35:19.705Z,23.00
2018-05-16T01:37:47.242Z,23.57
2018-05-16T01:40:15.570Z,24.07
2018-05-16T01:42:43.126Z,27.03
2018-05-16T01:45:10.696Z,26.17
2018-05-16T01:47:38.316Z,30.13
2018-05-16T01:50:05.912Z,31.23
2018-05-16T01:52:33.472Z,32.17
2018-05-16T01:55:01.015Z,31.13
2018-05-16T01:57:28.592Z,33.77
2018-05-16T01:59:56.152Z,35.43
2018-05-16T02:02:23.742Z,45.90
2018-05-16T02:04:51.356Z,47.60
2018-05-16T02:07:18.910Z,45.80
2018-05-16T02:09:46.502Z,45.03
2018-05-16T02:12:14.051Z,41.10
2018-05-16T02:14:41.593Z,44.53
2018-05-16T02:17:09.187Z,36.37
2018-05-16T02:19:36.728Z,43.43
2018-05-16T02:22:05.152Z,35.90
2018-05-16T02:24:32.694Z,42.33
2018-05-16T02:27:00.238Z,41.33
2018-05-16T02:29:27.781Z,38.67
2018-05-16T02:31:56.169Z,32.07
2018-05-16T02:34:23.723Z,38.97
2018-05-16T02:36:51.273Z,37.27
2018-05-16T02:39:18.877Z,34.27
2018-05-16T02:41:46.430Z,41.00
2018-05-16T02:44:14.106Z,37.13
2018-05-16T02:46:41.590Z,39.47
2018-05-16T02:49:09.157Z,32.77
2018-05-16T02:51:36.710Z,36.20
2018-05-16T02:54:04.247Z,38.57
2018-05-16T02:56:32.614Z,34.57
2018-05-16T02:59:01.701Z,32.03
2018-05-16T03:01:29.259Z,33.17
2018-05-16T03:03:56.841Z,34.43
2018-05-16T03:06:26.570Z,31.93
2018-05-16T03:08:54.150Z,33.67
2018-05-16T03:11:21.715Z,36.80
2018-05-16T03:13:49.473Z,33.40
2018-05-16T03:16:17.068Z,39.27
2018-05-16T03:18:44.651Z,35.10
2018-05-16T03:21:12.956Z,36.30
2018-05-16T03:23:40.556Z,33.10
2018-05-16T03:26:08.113Z,33.73
2018-05-16T03:28:35.706Z,38.50
2018-05-16T03:31:04.007Z,33.20
2018-05-16T03:33:31.547Z,42.23
2018-05-16T03:35:59.896Z,41.73
2018-05-16T03:38:27.450Z,40.13
2018-05-16T03:40:54.995Z,36.77
2018-05-16T03:43:22.554Z,38.70
2018-05-16T03:45:50.123Z,39.40
2018-05-16T03:48:17.666Z,38.43
2018-05-16T03:50:45.226Z,37.67
2018-05-16T03:53:12.749Z,39.87
2018-05-16T03:55:41.092Z,40.67
2018-05-16T03:58:20.627Z,40.37
2018-05-16T04:01:00.009Z,39.43
2018-05-16T04:03:39.499Z,38.90
2018-05-16T04:06:07.052Z,44.73
2018-05-16T04:08:34.619Z,46.27
2018-05-16T04:11:02.198Z,35.83
2018-05-16T04:13:29.805Z,41.70
2018-05-16T04:15:57.371Z,39.60
2018-05-16T04:18:24.914Z,38.63
2018-05-16T04:20:52.484Z,42.50
2018-05-16T04:23:20.062Z,45.20
2018-05-16T04:25:47.611Z,42.60
2018-05-16T04:28:15.155Z,46.50
2018-05-16T04:30:42.714Z,43.40
2018-05-16T04:33:10.460Z,46.03
2018-05-16T04:35:38.065Z,36.20
2018-05-16T04:38:06.337Z,36.93
2018-05-16T04:40:33.911Z,38.17
2018-05-16T04:43:01.490Z,38.13
2018-05-16T04:45:29.069Z,38.00
2018-05-16T04:47:57.386Z,34.43
2018-05-16T04:50:24.969Z,32.83
2018-05-16T04:52:52.579Z,39.10
2018-05-16T04:55:20.098Z,35.80
2018-05-16T04:57:47.634Z,41.63
2018-05-16T05:00:15.213Z,30.60
2018-05-16T05:02:42.752Z,29.43
2018-05-16T05:05:10.326Z,37.67
2018-05-16T05:07:37.954Z,35.47
2018-05-16T05:10:05.516Z,37.33
2018-05-16T05:12:33.107Z,33.57
2018-05-16T05:15:00.649Z,35.63
2018-05-16T05:17:28.222Z,31.90
2018-05-16T05:19:55.798Z,39.37
2018-05-16T05:22:23.354Z,35.33
2018-05-16T05:24:50.918Z,35.77
2018-05-16T05:27:20.010Z,33.87
2018-05-16T05:29:48.332Z,30.40
2018-05-16T05:32:15.881Z,35.37
2018-05-16T05:34:44.220Z,31.23
2018-05-16T05:37:12.534Z,30.00
2018-05-16T05:39:40.139Z,30.23
2018-05-16T05:42:07.779Z,36.97
2018-05-16T05:44:35.312Z,29.70
2018-05-16T05:47:03.651Z,29.90
2018-05-16T05:49:32.714Z,29.70
2018-05-16T05:52:00.281Z,32.63
2018-05-16T05:54:27.836Z,36.30
2018-05-16T05:56:55.420Z,31.60
2018-05-16T05:59:22.982Z,46.67
2018-05-16T06:01:50.531Z,30.77
2018-05-16T06:04:18.115Z,29.13
2018-05-16T06:06:45.658Z,35.00
2018-05-16T06:09:13.207Z,29.83
2018-05-16T06:11:40.771Z,35.40
2018-05-16T06:14:08.349Z,34.43
2018-05-16T06:16:37.420Z,35.70
2018-05-16T06:19:04.979Z,43.30
2018-05-16T06:21:32.547Z,37.00
2018-05-16T06:24:00.107Z,30.77
2018-05-16T06:26:27.659Z,29.43
2018-05-16T06:28:55.178Z,29.13
2018-05-16T06:31:22.759Z,27.27
2018-05-16T06:33:50.291Z,29.27
2018-05-16T06:36:17.880Z,27.47
2018-05-16T06:38:45.440Z,29.13
2018-05-16T06:41:12.988Z,31.70
2018-05-16T06:43:40.563Z,31.93
2018-05-16T06:46:08.160Z,32.63
2018-05-16T06:48:35.828Z,31.23
2018-05-16T06:51:04.158Z,33.80
2018-05-16T06:53:31.851Z,31.97
2018-05-16T06:55:59.381Z,38.13
2018-05-16T06:58:26.958Z,35.27
2018-05-16T07:00:54.486Z,36.77
2018-05-16T07:03:22.061Z,37.97
2018-05-16T07:05:49.630Z,41.23
2018-05-16T07:08:17.216Z,41.70
2018-05-16T07:10:44.854Z,37.30
2018-05-16T07:13:12.439Z,38.67
2018-05-16T07:15:40.039Z,35.77
2018-05-16T07:18:07.569Z,37.47
2018-05-16T07:20:35.904Z,41.53
2018-05-16T07:23:03.487Z,35.60
2018-05-16T07:25:31.135Z,36.10
2018-05-16T07:27:58.688Z,33.40
2018-05-16T07:30:26.253Z,41.47
2018-05-16T07:32:53.780Z,35.87
2018-05-16T07:35:21.335Z,35.20
2018-05-16T07:37:48.879Z,37.40
2018-05-16T07:40:16.413Z,29.50
2018-05-16T07:42:43.958Z,30.63
2018-05-16T07:45:11.486Z,31.23
2018-05-16T07:47:39.030Z,29.37
2018-05-16T07:50:06.595Z,31.00
2018-05-16T07:52:34.161Z,30.13
2018-05-16T07:55:01.715Z,28.77
2018-05-16T07:57:29.286Z,31.33
2018-05-16T07:59:56.838Z,28.97
2018-05-16T08:02:24.391Z,30.03
2018-05-16T08:04:51.945Z,28.13
2018-05-16T08:07:19.498Z,30.30
2018-05-16T08:09:47.082Z,34.77
2018-05-16T08:12:14.740Z,31.47
2018-05-16T08:14:42.298Z,28.70
2018-05-16T08:17:09.833Z,37.47
2018-05-16T08:19:37.403Z,30.13
2018-05-16T08:22:05.003Z,39.70
2018-05-16T08:24:32.572Z,28.77
2018-05-16T08:27:00.191Z,29.63
2018-05-16T08:29:27.729Z,28.43
2018-05-16T08:31:55.343Z,30.70
2018-05-16T08:34:22.918Z,28.90
2018-05-16T08:36:50.545Z,32.93
2018-05-16T08:39:19.559Z,30.33
2018-05-16T08:41:47.215Z,34.93
2018-05-16T08:44:14.742Z,28.97
2018-05-16T08:46:42.320Z,28.73
2018-05-16T08:49:09.895Z,31.73
2018-05-16T08:51:37.470Z,28.63
2018-05-16T08:54:05.000Z,25.50
2018-05-16T08:56:32.644Z,24.53
2018-05-16T08:59:00.201Z,20.10
2018-05-16T09:01:27.752Z,21.20
2018-05-16T09:03:55.362Z,15.73
2018-05-16T09:06:22.910Z,16.80
2018-05-16T09:08:50.458Z,16.43
2018-05-16T09:11:18.031Z,18.17
2018-05-16T09:13:45.603Z,22.33
2018-05-16T09:16:13.192Z,20.10
2018-05-16T09:18:40.738Z,18.13
2018-05-16T09:21:09.044Z,23.43
2018-05-16T09:23:36.615Z,21.20
2018-05-16T09:26:04.138Z,20.03
2018-05-16T09:28:32.441Z,17.10
2018-05-16T09:31:00.000Z,19.40
2018-05-16T09:33:27.554Z,22.50
2018-05-16T09:35:55.168Z,27.00
2018-05-16T09:38:22.730Z,29.03
2018-05-16T09:40:50.269Z,24.27
2018-05-16T09:43:17.801Z,23.83
2018-05-16T09:45:45.471Z,25.70
2018-05-16T09:48:12.979Z,26.87
2018-05-16T09:50:41.384Z,26.33
2018-05-16T09:53:09.700Z,22.10
2018-05-16T09:55:37.271Z,25.33
2018-05-16T09:58:04.868Z,26.80
2018-05-16T10:00:33.215Z,22.93
2018-05-16T10:03:00.762Z,18.70
2018-05-16T10:05:28.290Z,23.63
2018-05-16T10:07:55.860Z,22.80
2018-05-16T10:10:23.434Z,32.77
2018-05-16T10:12:51.023Z,23.27
2018-05-16T10:15:18.602Z,21.67
2018-05-16T10:17:46.888Z,22.37
2018-05-16T10:20:15.284Z,20.90
2018-05-16T10:22:43.569Z,21.53
2018-05-16T10:25:11.124Z,23.23
2018-05-16T10:27:38.719Z,22.97
2018-05-16T10:30:06.375Z,23.20
2018-05-16T10:32:33.955Z,22.20
2018-05-16T10:35:01.540Z,22.43
2018-05-16T10:37:29.834Z,25.27
2018-05-16T10:39:57.369Z,27.93
2018-05-16T10:42:24.958Z,22.60
2018-05-16T10:44:52.519Z,26.77
2018-05-16T10:47:20.102Z,21.87
2018-05-16T10:49:47.679Z,21.90
2018-05-16T10:52:16.132Z,26.77
2018-05-16T10:54:44.377Z,23.47
2018-05-16T10:57:11.909Z,24.33
2018-05-16T10:59:39.464Z,23.07
2018-05-16T11:02:07.019Z,21.30
2018-05-16T11:04:34.547Z,20.57
2018-05-16T11:07:02.092Z,24.10
2018-05-16T11:09:29.615Z,20.20
2018-05-16T11:11:57.959Z,24.43
2018-05-16T11:14:25.505Z,18.50
2018-05-16T11:16:53.055Z,24.13
2018-05-16T11:19:20.598Z,22.00
2018-05-16T11:21:48.169Z,19.90
2018-05-16T11:24:15.710Z,20.43
2018-05-16T11:26:43.319Z,20.77
2018-05-16T11:29:10.870Z,18.40
2018-05-16T11:31:38.412Z,18.50
2018-05-16T11:34:05.996Z,18.37
2018-05-16T11:36:34.343Z,18.37
2018-05-16T11:39:01.902Z,17.63
2018-05-16T11:41:29.477Z,18.10
2018-05-16T11:43:57.031Z,16.10
2018-05-16T11:46:24.580Z,19.00
2018-05-16T11:48:52.205Z,17.37
2018-05-16T11:51:19.731Z,17.33
2018-05-16T11:53:47.390Z,17.67
2018-05-16T11:56:14.934Z,14.63
2018-05-16T11:58:42.513Z,17.70
2018-05-16T12:01:11.591Z,18.77
2018-05-16T12:03:39.159Z,17.63
2018-05-16T12:06:06.702Z,16.10
2018-05-16T12:08:34.243Z,15.47
2018-05-16T12:11:01.801Z,17.30
2018-05-16T12:13:29.387Z,15.20
2018-05-16T12:15:56.940Z,17.07
2018-05-16T12:18:24.512Z,14.90
2018-05-16T12:20:52.067Z,15.23
2018-05-16T12:23:19.648Z,17.63
2018-05-16T12:25:47.209Z,17.17
2018-05-16T12:28:18.245Z,18.73
2018-05-16T12:30:45.795Z,14.20
2018-05-16T12:33:13.383Z,13.33
2018-05-16T12:35:41.702Z,15.23
2018-05-16T12:38:09.266Z,16.07
2018-05-16T12:40:36.822Z,14.87
2018-05-16T12:43:16.359Z,16.17
2018-05-16T12:45:43.929Z,17.33
2018-05-16T12:48:11.488Z,15.13
2018-05-16T12:50:39.055Z,15.73
2018-05-16T12:53:06.604Z,16.57
2018-05-16T12:55:34.170Z,18.63
2018-05-16T12:58:01.695Z,12.83
2018-05-16T13:00:29.230Z,15.00
2018-05-16T13:02:56.804Z,14.67
2018-05-16T13:05:25.132Z,14.17
2018-05-16T13:07:52.678Z,20.43
2018-05-16T13:10:20.224Z,17.20
2018-05-16T13:12:47.774Z,12.03
2018-05-16T13:15:15.352Z,12.43
2018-05-16T13:17:43.714Z,14.20
2018-05-16T13:20:11.980Z,12.00
2018-05-16T13:22:40.266Z,10.73
2018-05-16T13:25:07.818Z,15.67
2018-05-16T13:27:36.131Z,18.40
2018-05-16T13:30:03.707Z,18.40
2018-05-16T13:32:31.254Z,19.50
2018-05-16T13:34:58.882Z,20.20
2018-05-16T13:37:26.443Z,15.23
2018-05-16T13:39:53.995Z,17.70
2018-05-16T13:42:21.533Z,15.80
2018-05-16T13:44:49.842Z,19.83
2018-05-16T13:47:17.361Z,15.97
2018-05-16T13:49:44.957Z,15.33
2018-05-16T13:52:12.520Z,18.07
2018-05-16T13:54:40.075Z,21.07
2018-05-16T13:57:07.659Z,23.97
2018-05-16T13:59:35.206Z,14.90
2018-05-16T14:02:02.741Z,18.93
2018-05-16T14:04:31.069Z,13.97
2018-05-16T14:06:58.651Z,14.47
2018-05-16T14:09:26.220Z,17.30
2018-05-16T14:11:54.549Z,15.47
2018-05-16T14:14:22.116Z,21.03
2018-05-16T14:16:49.788Z,16.33
2018-05-16T14:19:17.354Z,17.13
2018-05-16T14:21:44.912Z,16.40
2018-05-16T14:24:12.447Z,16.67
2018-05-16T14:26:40.026Z,24.60
2018-05-16T14:29:07.604Z,19.27
2018-05-16T14:31:35.906Z,17.70
2018-05-16T14:34:03.491Z,17.83
2018-05-16T14:36:31.091Z,14.07
2018-05-16T14:38:58.751Z,13.50
2018-05-16T14:41:26.474Z,18.50
2018-05-16T14:43:53.996Z,16.43
2018-05-16T14:46:21.571Z,14.83
2018-05-16T14:48:49.113Z,23.87
2018-05-16T14:51:16.637Z,17.20
2018-05-16T14:53:44.236Z,16.17
2018-05-16T14:56:12.530Z,16.33
2018-05-16T14:58:40.825Z,19.67
2018-05-16T15:01:08.381Z,18.00
2018-05-16T15:03:35.939Z,14.47
2018-05-16T15:06:03.498Z,19.60
2018-05-16T15:08:31.051Z,20.43
2018-05-16T15:10:58.628Z,15.10
2018-05-16T15:13:26.158Z,15.93
2018-05-16T15:15:54.482Z,23.40
2018-05-16T15:18:22.044Z,14.37
2018-05-16T15:20:49.569Z,17.30
2018-05-16T15:23:17.150Z,15.03
2018-05-16T15:25:44.675Z,9.73
2018-05-16T15:28:13.062Z,8.90
2018-05-16T15:30:40.610Z,7.37
2018-05-16T15:33:08.203Z,8.03
2018-05-16T15:35:35.729Z,6.20
2018-05-16T15:38:03.342Z,6.20
2018-05-16T15:40:30.867Z,5.50
2018-05-16T15:42:58.404Z,6.60
2018-05-16T15:45:26.755Z,7.30
2018-05-16T15:47:54.282Z,7.28
2018-05-16T15:50:21.884Z,7.70
2018-05-16T15:52:50.235Z,6.80
2018-05-16T15:55:17.868Z,9.93
2018-05-16T15:57:45.425Z,6.77
2018-05-16T16:00:13.000Z,7.23
2018-05-16T16:02:40.672Z,9.90
2018-05-16T16:05:08.186Z,8.67
2018-05-16T16:07:35.733Z,7.57
2018-05-16T16:10:04.093Z,8.53
2018-05-16T16:12:32.387Z,9.67
2018-05-16T16:15:00.701Z,7.57
2018-05-16T16:17:28.270Z,7.63
2018-05-16T16:19:55.794Z,10.90
2018-05-16T16:22:23.327Z,8.83
2018-05-16T16:24:50.876Z,9.50
2018-05-16T16:27:18.443Z,10.97
2018-05-16T16:29:46.002Z,11.97
2018-05-16T16:32:14.347Z,21.40
2018-05-16T16:34:42.679Z,16.37
2018-05-16T16:37:10.259Z,10.93
2018-05-16T16:39:37.812Z,10.90
2018-05-16T16:42:05.419Z,9.90
2018-05-16T16:44:32.955Z,11.70
2018-05-16T16:47:00.548Z,17.50
2018-05-16T16:49:28.103Z,11.40
2018-05-16T16:51:55.695Z,14.40
2018-05-16T16:54:24.002Z,11.80
2018-05-16T16:56:51.586Z,12.90
2018-05-16T16:59:19.175Z,18.67
2018-05-16T17:01:46.720Z,13.50
2018-05-16T17:04:14.266Z,15.30
2018-05-16T17:06:41.826Z,15.00
2018-05-16T17:09:09.407Z,10.87
2018-05-16T17:11:36.941Z,10.27
2018-05-16T17:14:04.538Z,25.73
2018-05-16T17:16:32.894Z,11.07
2018-05-16T17:19:00.486Z,13.90
2018-05-16T17:21:28.794Z,18.10
2018-05-16T17:23:56.379Z,15.70
2018-05-16T17:26:23.934Z,15.13
2018-05-16T17:28:51.505Z,15.80
2018-05-16T17:31:19.081Z,14.50
2018-05-16T17:33:46.647Z,18.87
2018-05-16T17:36:14.995Z,21.23
2018-05-16T17:38:42.536Z,21.43
2018-05-16T17:41:10.107Z,13.57
2018-05-16T17:43:37.653Z,13.40
2018-05-16T17:46:05.232Z,16.23
2018-05-16T17:48:32.800Z,15.33
2018-05-16T17:51:01.134Z,14.13
2018-05-16T17:53:28.701Z,16.53
2018-05-16T17:55:56.265Z,17.93
2018-05-16T17:58:23.807Z,23.60
2018-05-16T18:00:51.340Z,17.67
2018-05-16T18:03:19.656Z,16.83
2018-05-16T18:05:47.189Z,16.43
2018-05-16T18:08:15.526Z,30.00
2018-05-16T18:10:43.099Z,15.93
2018-05-16T18:16:36.379Z,18.50
2018-05-16T18:19:03.966Z,19.97
2018-05-16T18:21:31.498Z,16.37
2018-05-16T18:23:59.317Z,18.40
2018-05-16T18:26:26.850Z,20.90
2018-05-16T18:28:54.389Z,21.87
2018-05-16T18:31:23.629Z,19.30
2018-05-16T18:33:51.203Z,22.33
2018-05-16T18:36:18.785Z,20.00
2018-05-16T18:38:46.317Z,21.17
2018-05-16T18:41:13.871Z,24.17
2018-05-16T18:43:41.423Z,22.97
2018-05-16T18:46:08.996Z,24.77
2018-05-16T18:48:36.566Z,22.10
2018-05-16T18:51:04.138Z,25.70
2018-05-16T18:53:31.724Z,22.80
2018-05-16T18:56:00.069Z,24.70
2018-05-16T18:58:27.627Z,22.13
2018-05-16T19:00:55.153Z,22.07
2018-05-16T19:03:22.727Z,23.53
2018-05-16T19:05:50.298Z,26.43
2018-05-16T19:08:17.848Z,25.47
2018-05-16T19:10:45.420Z,21.50
2018-05-16T19:13:12.993Z,21.90
2018-05-16T19:15:40.619Z,22.73
2018-05-16T19:18:08.196Z,23.67
2018-05-16T19:20:35.757Z,28.63
2018-05-16T19:23:03.315Z,24.13
2018-05-16T19:25:30.890Z,24.23
2018-05-16T19:27:58.439Z,22.87
2018-05-16T19:30:26.000Z,23.73
2018-05-16T19:32:53.575Z,27.90
2018-05-16T19:35:21.132Z,21.53
2018-05-16T19:37:48.716Z,21.57
2018-05-16T19:40:16.344Z,22.30
2018-05-16T19:42:43.875Z,19.77
2018-05-16T19:45:11.470Z,21.90
2018-05-16T19:47:38.994Z,21.13
2018-05-16T19:50:06.568Z,24.30
2018-05-16T19:52:34.098Z,23.60
2018-05-16T19:55:01.626Z,20.40
2018-05-16T19:57:29.995Z,23.63
2018-05-16T19:59:57.551Z,22.17
2018-05-16T20:02:25.112Z,30.27
2018-05-16T20:04:52.832Z,24.17
2018-05-16T20:07:20.447Z,25.53
2018-05-16T20:09:48.026Z,26.43
2018-05-16T20:12:16.341Z,25.33
2018-05-16T20:14:43.938Z,24.93
2018-05-16T20:17:11.507Z,26.27
2018-05-16T20:19:39.835Z,25.23
2018-05-16T20:22:07.423Z,28.07
2018-05-16T20:24:35.778Z,31.80
2018-05-16T20:27:03.340Z,30.13
2018-05-16T20:29:31.024Z,29.63
2018-05-16T20:31:59.267Z,29.03
2018-05-16T20:34:26.854Z,29.20
2018-05-16T20:36:54.431Z,26.80
2018-05-16T20:39:21.995Z,28.93
2018-05-16T20:41:49.574Z,29.97
2018-05-16T20:44:17.119Z,33.90
2018-05-16T20:46:45.488Z,31.63
2018-05-16T20:49:13.058Z,34.07
2018-05-16T20:51:41.519Z,32.53
2018-05-16T20:54:09.896Z,31.63
2018-05-16T20:56:37.489Z,31.00
2018-05-16T20:59:05.025Z,32.00
2018-05-16T21:01:32.544Z,31.00
2018-05-16T21:04:00.145Z,33.23
2018-05-16T21:06:27.742Z,33.70
2018-05-16T21:08:55.278Z,33.97
2018-05-16T21:11:23.601Z,33.00
2018-05-16T21:13:51.175Z,40.13
2018-05-16T21:16:18.697Z,30.80
2018-05-16T21:18:46.238Z,32.97
2018-05-16T21:21:14.526Z,30.93
2018-05-16T21:23:42.104Z,31.60
2018-05-16T21:26:09.712Z,36.70
2018-05-16T21:28:37.289Z,35.17
2018-05-16T21:31:05.630Z,39.30
2018-05-16T21:33:33.166Z,37.70
2018-05-16T21:36:00.730Z,33.63
2018-05-16T21:38:28.288Z,36.13
2018-05-16T21:40:55.867Z,36.37
2018-05-16T21:43:23.389Z,44.00
2018-05-16T21:45:50.972Z,41.80
2018-05-16T21:48:18.548Z,37.57
2018-05-16T21:50:46.210Z,41.07
2018-05-16T21:53:13.749Z,42.93
2018-05-16T21:55:41.330Z,40.30
2018-05-16T21:58:08.866Z,37.73
2018-05-16T22:00:36.434Z,50.00
2018-05-16T22:03:03.962Z,41.97
2018-05-16T22:05:31.520Z,44.33
2018-05-16T22:07:59.070Z,50.00
2018-05-16T22:10:27.420Z,43.23
2018-05-16T22:12:55.015Z,41.37
2018-05-16T22:15:23.296Z,42.73
2018-05-16T22:17:50.898Z,46.53
2018-05-16T22:20:18.419Z,41.13
2018-05-16T22:22:45.971Z,44.20
2018-05-16T22:25:13.494Z,45.93
2018-05-16T22:27:41.067Z,45.57
2018-05-16T22:30:08.887Z,47.73
2018-05-16T22:32:42.033Z,55.20
2018-05-16T22:35:16.087Z,50.90
2018-05-16T22:37:49.348Z,54.33
2018-05-16T22:40:22.649Z,50.93
2018-05-16T22:42:49.727Z,56.97
2018-05-16T22:45:22.974Z,56.53
2018-05-16T22:47:50.536Z,65.17
2018-05-16T22:50:18.085Z,63.60
2018-05-16T22:52:46.413Z,64.67
2018-05-16T22:55:13.991Z,64.00
2018-05-16T22:57:41.526Z,68.67
2018-05-16T23:00:09.081Z,65.53
2018-05-16T23:02:36.611Z,66.03
2018-05-16T23:05:04.167Z,59.57
2018-05-16T23:07:31.754Z,68.87
2018-05-16T23:09:59.281Z,69.13
2018-05-16T23:12:26.830Z,61.67
2018-05-16T23:14:55.168Z,63.43
2018-05-16T23:17:22.714Z,61.13
2018-05-16T23:19:50.366Z,60.07
2018-05-16T23:22:17.913Z,59.40
2018-05-16T23:24:45.488Z,65.37
2018-05-16T23:27:13.038Z,59.20
2018-05-16T23:29:40.557Z,59.83
2018-05-16T23:32:08.130Z,51.10
2018-05-16T23:34:36.470Z,53.10
2018-05-16T23:37:04.047Z,44.80
2018-05-16T23:39:31.606Z,45.37
2018-05-16T23:41:59.202Z,44.80
2018-05-16T23:44:26.787Z,47.50
2018-05-16T23:46:54.317Z,41.53
2018-05-16T23:49:21.881Z,42.70
2018-05-16T23:51:49.414Z,47.63
2018-05-16T23:54:17.719Z,41.80
2018-05-16T23:56:45.282Z,41.50
2018-05-16T23:59:12.864Z,40.50
